createdAt,value
2023-03-07T00:00:16.000Z,1006.93
2023-03-07T00:01:34.000Z,1006.95
2023-03-07T00:02:16.000Z,1006.93
2023-03-07T00:03:17.000Z,1006.91
2023-03-07T00:04:16.000Z,1006.91
2023-03-07T00:05:17.000Z,1006.92
2023-03-07T00:06:17.000Z,1006.95
2023-03-07T00:07:16.000Z,1006.95
2023-03-07T00:08:16.000Z,1006.93
2023-03-07T00:09:16.000Z,1006.99
2023-03-07T00:10:16.000Z,1006.99
2023-03-07T00:11:17.000Z,1006.96
2023-03-07T00:12:16.000Z,1006.95
2023-03-07T00:13:16.000Z,1006.93
2023-03-07T00:14:16.000Z,1006.93
2023-03-07T00:15:17.000Z,1006.90
2023-03-07T00:16:19.000Z,1006.89
2023-03-07T00:17:16.000Z,1006.85
2023-03-07T00:18:16.000Z,1006.87
2023-03-07T00:19:17.000Z,1006.88
2023-03-07T00:20:16.000Z,1006.90
2023-03-07T00:21:19.000Z,1006.88
2023-03-07T00:22:16.000Z,1006.85
2023-03-07T00:23:15.000Z,1006.87
2023-03-07T00:24:16.000Z,1006.81
2023-03-07T00:25:16.000Z,1006.82
2023-03-07T00:26:18.000Z,1006.78
2023-03-07T00:27:15.000Z,1006.81
2023-03-07T00:28:15.000Z,1006.81
2023-03-07T00:29:15.000Z,1006.80
2023-03-07T00:30:16.000Z,1006.79
2023-03-07T00:31:17.000Z,1006.80
2023-03-07T00:32:16.000Z,1006.76
2023-03-07T00:33:16.000Z,1006.76
2023-03-07T00:34:16.000Z,1006.74
2023-03-07T00:35:16.000Z,1006.78
2023-03-07T00:36:20.000Z,1006.77
2023-03-07T00:37:16.000Z,1006.75
2023-03-07T00:38:15.000Z,1006.71
2023-03-07T00:39:15.000Z,1006.74
2023-03-07T00:40:16.000Z,1006.70
2023-03-07T00:41:30.000Z,1006.70
2023-03-07T00:42:16.000Z,1006.67
2023-03-07T00:43:15.000Z,1006.68
2023-03-07T00:44:16.000Z,1006.67
2023-03-07T00:45:15.000Z,1006.71
2023-03-07T00:46:17.000Z,1006.70
2023-03-07T00:47:16.000Z,1006.70
2023-03-07T00:48:16.000Z,1006.72
2023-03-07T00:49:16.000Z,1006.72
2023-03-07T00:50:16.000Z,1006.66
2023-03-07T00:51:18.000Z,1006.68
2023-03-07T00:52:16.000Z,1006.63
2023-03-07T00:53:16.000Z,1006.66
2023-03-07T00:54:16.000Z,1006.66
2023-03-07T00:55:16.000Z,1006.65
2023-03-07T00:56:18.000Z,1006.63
2023-03-07T00:57:16.000Z,1006.62
2023-03-07T00:58:16.000Z,1006.63
2023-03-07T00:59:16.000Z,1006.63
2023-03-07T01:00:16.000Z,1006.62
2023-03-07T01:01:19.000Z,1006.65
2023-03-07T01:02:16.000Z,1006.60
2023-03-07T01:03:16.000Z,1006.58
2023-03-07T01:04:16.000Z,1006.56
2023-03-07T01:05:16.000Z,1006.56
2023-03-07T01:06:18.000Z,1006.54
2023-03-07T01:07:16.000Z,1006.50
2023-03-07T01:08:18.000Z,1006.51
2023-03-07T01:09:16.000Z,1006.51
2023-03-07T01:10:16.000Z,1006.49
2023-03-07T01:11:16.000Z,1006.49
2023-03-07T01:12:16.000Z,1006.47
2023-03-07T01:13:17.000Z,1006.46
2023-03-07T01:14:16.000Z,1006.49
2023-03-07T01:15:16.000Z,1006.42
2023-03-07T01:16:19.000Z,1006.45
2023-03-07T01:17:16.000Z,1006.47
2023-03-07T01:18:16.000Z,1006.43
2023-03-07T01:19:16.000Z,1006.45
2023-03-07T01:20:16.000Z,1006.42
2023-03-07T01:21:23.000Z,1006.44
2023-03-07T01:22:16.000Z,1006.42
2023-03-07T01:23:16.000Z,1006.34
2023-03-07T01:24:16.000Z,1006.35
2023-03-07T01:25:16.000Z,1006.36
2023-03-07T01:26:19.000Z,1006.37
2023-03-07T01:27:15.000Z,1006.38
2023-03-07T01:28:15.000Z,1006.31
2023-03-07T01:29:16.000Z,1006.34
2023-03-07T01:30:16.000Z,1006.26
2023-03-07T01:31:16.000Z,1006.26
2023-03-07T01:32:16.000Z,1006.31
2023-03-07T01:33:16.000Z,1006.27
2023-03-07T01:34:15.000Z,1006.26
2023-03-07T01:35:15.000Z,1006.28
2023-03-07T01:36:19.000Z,1006.28
2023-03-07T01:37:17.000Z,1006.22
2023-03-07T01:38:16.000Z,1006.26
2023-03-07T01:39:16.000Z,1006.22
2023-03-07T01:40:16.000Z,1006.20
2023-03-07T01:41:16.000Z,1006.18
2023-03-07T01:42:16.000Z,1006.15
2023-03-07T01:43:22.000Z,1006.10
2023-03-07T01:44:21.000Z,1006.13
2023-03-07T01:45:26.000Z,1006.12
2023-03-07T01:46:32.000Z,1006.08
2023-03-07T01:47:15.000Z,1006.09
2023-03-07T01:48:16.000Z,1006.14
2023-03-07T01:49:20.000Z,1006.10
2023-03-07T01:50:17.000Z,1006.09
2023-03-07T01:51:17.000Z,1006.08
2023-03-07T01:52:25.000Z,1006.09
2023-03-07T01:53:16.000Z,1006.09
2023-03-07T01:54:19.000Z,1006.02
2023-03-07T01:55:21.000Z,1006.07
2023-03-07T01:56:16.000Z,1006.05
2023-03-07T01:57:19.000Z,1006.04
2023-03-07T01:58:17.000Z,1006.01
2023-03-07T01:59:23.000Z,1005.93
2023-03-07T02:00:22.000Z,1005.99
2023-03-07T02:01:16.000Z,1005.95
2023-03-07T02:02:19.000Z,1005.96
2023-03-07T02:03:23.000Z,1005.94
2023-03-07T02:04:24.000Z,1005.95
2023-03-07T02:05:24.000Z,1006.00
2023-03-07T02:06:17.000Z,1005.92
2023-03-07T02:07:20.000Z,1005.87
2023-03-07T02:08:18.000Z,1005.86
2023-03-07T02:09:19.000Z,1005.92
2023-03-07T02:10:19.000Z,1005.90
2023-03-07T02:11:16.000Z,1005.90
2023-03-07T02:12:16.000Z,1005.84
2023-03-07T02:13:16.000Z,1005.87
2023-03-07T02:14:16.000Z,1005.88
2023-03-07T02:15:16.000Z,1005.84
2023-03-07T02:16:16.000Z,1005.87
2023-03-07T02:17:17.000Z,1005.80
2023-03-07T02:18:21.000Z,1005.84
2023-03-07T02:19:36.000Z,1005.86
2023-03-07T02:20:26.000Z,1005.84
2023-03-07T02:21:26.000Z,1005.83
2023-03-07T02:22:17.000Z,1005.86
2023-03-07T02:23:24.000Z,1005.85
2023-03-07T02:24:25.000Z,1005.89
2023-03-07T02:25:23.000Z,1005.87
2023-03-07T02:26:41.000Z,1005.84
2023-03-07T02:27:15.000Z,1005.83
2023-03-07T02:28:15.000Z,1005.88
2023-03-07T02:29:15.000Z,1005.85
2023-03-07T02:30:16.000Z,1005.82
2023-03-07T02:31:15.000Z,1005.84
2023-03-07T02:32:15.000Z,1005.82
2023-03-07T02:33:15.000Z,1005.82
2023-03-07T02:34:21.000Z,1005.78
2023-03-07T02:35:21.000Z,1005.83
2023-03-07T02:36:21.000Z,1005.81
2023-03-07T02:37:23.000Z,1005.77
2023-03-07T02:38:15.000Z,1005.83
2023-03-07T02:39:18.000Z,1005.80
2023-03-07T02:40:19.000Z,1005.76
2023-03-07T02:41:22.000Z,1005.77
2023-03-07T02:42:19.000Z,1005.74
2023-03-07T02:43:16.000Z,1005.74
2023-03-07T02:44:15.000Z,1005.74
2023-03-07T02:45:16.000Z,1005.70
2023-03-07T02:46:15.000Z,1005.63
2023-03-07T02:47:15.000Z,1005.58
2023-03-07T02:48:15.000Z,1005.64
2023-03-07T02:49:16.000Z,1005.62
2023-03-07T02:50:15.000Z,1005.61
2023-03-07T02:51:15.000Z,1005.65
2023-03-07T02:52:16.000Z,1005.67
2023-03-07T02:53:15.000Z,1005.64
2023-03-07T02:54:15.000Z,1005.71
2023-03-07T02:55:15.000Z,1005.65
2023-03-07T02:56:15.000Z,1005.66
2023-03-07T02:57:15.000Z,1005.68
2023-03-07T02:58:15.000Z,1005.69
2023-03-07T02:59:15.000Z,1005.67
2023-03-07T03:00:16.000Z,1005.66
2023-03-07T03:01:16.000Z,1005.62
2023-03-07T03:02:16.000Z,1005.63
2023-03-07T03:03:15.000Z,1005.62
2023-03-07T03:04:15.000Z,1005.60
2023-03-07T03:05:16.000Z,1005.63
2023-03-07T03:06:16.000Z,1005.58
2023-03-07T03:07:16.000Z,1005.60
2023-03-07T03:08:15.000Z,1005.63
2023-03-07T03:09:15.000Z,1005.55
2023-03-07T03:10:16.000Z,1005.57
2023-03-07T03:11:15.000Z,1005.56
2023-03-07T03:12:16.000Z,1005.60
2023-03-07T03:13:15.000Z,1005.56
2023-03-07T03:14:16.000Z,1005.56
2023-03-07T03:15:15.000Z,1005.53
2023-03-07T03:16:15.000Z,1005.55
2023-03-07T03:17:16.000Z,1005.50
2023-03-07T03:18:16.000Z,1005.54
2023-03-07T03:19:15.000Z,1005.51
2023-03-07T03:20:17.000Z,1005.54
2023-03-07T03:21:16.000Z,1005.50
2023-03-07T03:22:16.000Z,1005.51
2023-03-07T03:23:16.000Z,1005.54
2023-03-07T03:24:16.000Z,1005.50
2023-03-07T03:25:16.000Z,1005.47
2023-03-07T03:26:16.000Z,1005.45
2023-03-07T03:27:16.000Z,1005.54
2023-03-07T03:28:16.000Z,1005.51
2023-03-07T03:29:16.000Z,1005.48
2023-03-07T03:30:16.000Z,1005.45
2023-03-07T03:31:16.000Z,1005.44
2023-03-07T03:32:16.000Z,1005.43
2023-03-07T03:33:16.000Z,1005.44
2023-03-07T03:34:16.000Z,1005.45
2023-03-07T03:35:16.000Z,1005.46
2023-03-07T03:36:16.000Z,1005.42
2023-03-07T03:37:16.000Z,1005.44
2023-03-07T03:38:16.000Z,1005.46
2023-03-07T03:39:16.000Z,1005.50
2023-03-07T03:40:16.000Z,1005.48
2023-03-07T03:41:16.000Z,1005.50
2023-03-07T03:42:16.000Z,1005.45
2023-03-07T03:43:17.000Z,1005.46
2023-03-07T03:44:16.000Z,1005.49
2023-03-07T03:45:16.000Z,1005.46
2023-03-07T03:46:18.000Z,1005.44
2023-03-07T03:47:16.000Z,1005.48
2023-03-07T03:48:16.000Z,1005.49
2023-03-07T03:49:16.000Z,1005.47
2023-03-07T03:50:16.000Z,1005.50
2023-03-07T03:51:16.000Z,1005.50
2023-03-07T03:52:16.000Z,1005.47
2023-03-07T03:53:15.000Z,1005.43
2023-03-07T03:54:16.000Z,1005.45
2023-03-07T03:55:16.000Z,1005.44
2023-03-07T03:56:19.000Z,1005.40
2023-03-07T03:57:19.000Z,1005.44
2023-03-07T03:58:16.000Z,1005.41
2023-03-07T03:59:16.000Z,1005.43
2023-03-07T04:00:18.000Z,1005.40
2023-03-07T04:01:17.000Z,1005.39
2023-03-07T04:02:15.000Z,1005.35
2023-03-07T04:03:15.000Z,1005.37
2023-03-07T04:04:16.000Z,1005.33
2023-03-07T04:05:16.000Z,1005.30
2023-03-07T04:06:26.000Z,1005.32
2023-03-07T04:07:15.000Z,1005.33
2023-03-07T04:08:16.000Z,1005.32
2023-03-07T04:09:16.000Z,1005.30
2023-03-07T04:10:15.000Z,1005.29
2023-03-07T04:11:16.000Z,1005.29
2023-03-07T04:12:15.000Z,1005.28
2023-03-07T04:13:15.000Z,1005.23
2023-03-07T04:14:15.000Z,1005.23
2023-03-07T04:15:16.000Z,1005.22
2023-03-07T04:16:16.000Z,1005.18
2023-03-07T04:17:15.000Z,1005.22
2023-03-07T04:18:19.000Z,1005.17
2023-03-07T04:19:16.000Z,1005.14
2023-03-07T04:20:16.000Z,1005.12
2023-03-07T04:21:16.000Z,1005.09
2023-03-07T04:22:16.000Z,1005.12
2023-03-07T04:23:17.000Z,1005.06
2023-03-07T04:24:16.000Z,1005.06
2023-03-07T04:25:16.000Z,1005.01
2023-03-07T04:26:16.000Z,1005.03
2023-03-07T04:27:16.000Z,1004.97
2023-03-07T04:28:17.000Z,1004.94
2023-03-07T04:29:16.000Z,1004.97
2023-03-07T04:30:16.000Z,1004.94
2023-03-07T04:31:22.000Z,1004.90
2023-03-07T04:32:16.000Z,1004.93
2023-03-07T04:33:16.000Z,1004.94
2023-03-07T04:34:16.000Z,1004.93
2023-03-07T04:35:16.000Z,1004.92
2023-03-07T04:36:17.000Z,1004.89
2023-03-07T04:37:16.000Z,1004.85
2023-03-07T04:38:16.000Z,1004.82
2023-03-07T04:39:16.000Z,1004.82
2023-03-07T04:40:16.000Z,1004.83
2023-03-07T04:41:21.000Z,1004.81
2023-03-07T04:42:16.000Z,1004.80
2023-03-07T04:43:16.000Z,1004.79
2023-03-07T04:44:16.000Z,1004.82
2023-03-07T04:45:16.000Z,1004.82
2023-03-07T04:46:16.000Z,1004.84
2023-03-07T04:47:16.000Z,1004.84
2023-03-07T04:48:16.000Z,1004.88
2023-03-07T04:49:16.000Z,1004.85
2023-03-07T04:50:16.000Z,1004.87
2023-03-07T04:51:16.000Z,1004.84
2023-03-07T04:52:16.000Z,1004.84
2023-03-07T04:53:17.000Z,1004.82
2023-03-07T04:54:16.000Z,1004.75
2023-03-07T04:55:16.000Z,1004.72
2023-03-07T04:56:16.000Z,1004.73
2023-03-07T04:57:15.000Z,1004.69
2023-03-07T04:58:16.000Z,1004.67
2023-03-07T04:59:15.000Z,1004.68
2023-03-07T05:00:17.000Z,1004.68
2023-03-07T05:01:16.000Z,1004.67
2023-03-07T05:02:16.000Z,1004.65
2023-03-07T05:03:16.000Z,1004.69
2023-03-07T05:04:16.000Z,1004.63
2023-03-07T05:05:16.000Z,1004.61
2023-03-07T05:06:16.000Z,1004.60
2023-03-07T05:07:15.000Z,1004.58
2023-03-07T05:08:16.000Z,1004.60
2023-03-07T05:09:16.000Z,1004.62
2023-03-07T05:10:16.000Z,1004.61
2023-03-07T05:11:16.000Z,1004.57
2023-03-07T05:12:16.000Z,1004.55
2023-03-07T05:13:16.000Z,1004.60
2023-03-07T05:14:16.000Z,1004.55
2023-03-07T05:15:16.000Z,1004.51
2023-03-07T05:16:17.000Z,1004.51
2023-03-07T05:17:17.000Z,1004.54
2023-03-07T05:18:15.000Z,1004.53
2023-03-07T05:19:16.000Z,1004.52
2023-03-07T05:20:16.000Z,1004.46
2023-03-07T05:21:16.000Z,1004.51
2023-03-07T05:22:16.000Z,1004.46
2023-03-07T05:23:17.000Z,1004.52
2023-03-07T05:24:16.000Z,1004.47
2023-03-07T05:25:16.000Z,1004.45
2023-03-07T05:26:15.000Z,1004.45
2023-03-07T05:27:15.000Z,1004.46
2023-03-07T05:28:16.000Z,1004.46
2023-03-07T05:29:16.000Z,1004.44
2023-03-07T05:30:16.000Z,1004.45
2023-03-07T05:31:16.000Z,1004.45
2023-03-07T05:32:15.000Z,1004.44
2023-03-07T05:33:16.000Z,1004.41
2023-03-07T05:34:16.000Z,1004.45
2023-03-07T05:35:16.000Z,1004.43
2023-03-07T05:36:16.000Z,1004.43
2023-03-07T05:37:15.000Z,1004.40
2023-03-07T05:38:15.000Z,1004.40
2023-03-07T05:39:15.000Z,1004.36
2023-03-07T05:40:16.000Z,1004.31
2023-03-07T05:41:16.000Z,1004.30
2023-03-07T05:42:16.000Z,1004.31
2023-03-07T05:43:15.000Z,1004.33
2023-03-07T05:44:15.000Z,1004.30
2023-03-07T05:45:15.000Z,1004.34
2023-03-07T05:46:15.000Z,1004.31
2023-03-07T05:47:16.000Z,1004.35
2023-03-07T05:48:15.000Z,1004.31
2023-03-07T05:49:16.000Z,1004.31
2023-03-07T05:50:17.000Z,1004.29
2023-03-07T05:51:15.000Z,1004.27
2023-03-07T05:52:16.000Z,1004.30
2023-03-07T05:53:15.000Z,1004.34
2023-03-07T05:54:16.000Z,1004.30
2023-03-07T05:55:16.000Z,1004.31
2023-03-07T05:56:15.000Z,1004.29
2023-03-07T05:57:15.000Z,1004.24
2023-03-07T05:58:16.000Z,1004.25
2023-03-07T05:59:16.000Z,1004.26
2023-03-07T06:00:16.000Z,1004.21
2023-03-07T06:01:15.000Z,1004.23
2023-03-07T06:02:15.000Z,1004.22
2023-03-07T06:03:15.000Z,1004.20
2023-03-07T06:04:15.000Z,1004.18
2023-03-07T06:05:16.000Z,1004.22
2023-03-07T06:06:15.000Z,1004.19
2023-03-07T06:07:16.000Z,1004.24
2023-03-07T06:08:15.000Z,1004.25
2023-03-07T06:09:16.000Z,1004.22
2023-03-07T06:10:16.000Z,1004.18
2023-03-07T06:11:15.000Z,1004.20
2023-03-07T06:12:15.000Z,1004.19
2023-03-07T06:13:23.000Z,1004.19
2023-03-07T06:14:16.000Z,1004.18
2023-03-07T06:15:16.000Z,1004.16
2023-03-07T06:16:16.000Z,1004.13
2023-03-07T06:17:15.000Z,1004.16
2023-03-07T06:18:16.000Z,1004.16
2023-03-07T06:19:15.000Z,1004.14
2023-03-07T06:20:16.000Z,1004.10
2023-03-07T06:21:17.000Z,1004.09
2023-03-07T06:22:15.000Z,1004.08
2023-03-07T06:23:15.000Z,1004.05
2023-03-07T06:24:15.000Z,1004.09
2023-03-07T06:25:16.000Z,1004.08
2023-03-07T06:26:15.000Z,1004.04
2023-03-07T06:27:16.000Z,1004.10
2023-03-07T06:28:16.000Z,1004.09
2023-03-07T06:29:16.000Z,1004.13
2023-03-07T06:30:16.000Z,1004.08
2023-03-07T06:31:17.000Z,1004.15
2023-03-07T06:32:16.000Z,1004.08
2023-03-07T06:33:16.000Z,1004.14
2023-03-07T06:34:15.000Z,1004.13
2023-03-07T06:35:16.000Z,1004.12
2023-03-07T06:36:18.000Z,1004.18
2023-03-07T06:37:16.000Z,1004.16
2023-03-07T06:38:16.000Z,1004.13
2023-03-07T06:39:19.000Z,1004.14
2023-03-07T06:40:16.000Z,1004.12
2023-03-07T06:41:16.000Z,1004.10
2023-03-07T06:42:15.000Z,1004.12
2023-03-07T06:43:16.000Z,1004.08
2023-03-07T06:44:16.000Z,1004.09
2023-03-07T06:45:16.000Z,1004.06
2023-03-07T06:46:17.000Z,1004.08
2023-03-07T06:47:15.000Z,1004.11
2023-03-07T06:48:16.000Z,1004.16
2023-03-07T06:49:15.000Z,1004.12
2023-03-07T06:50:16.000Z,1004.11
2023-03-07T06:51:16.000Z,1004.11
2023-03-07T06:52:16.000Z,1004.11
2023-03-07T06:53:16.000Z,1004.15
2023-03-07T06:54:15.000Z,1004.15
2023-03-07T06:55:18.000Z,1004.18
2023-03-07T06:56:15.000Z,1004.17
2023-03-07T06:57:15.000Z,1004.16
2023-03-07T06:58:16.000Z,1004.13
2023-03-07T06:59:15.000Z,1004.13
2023-03-07T07:00:16.000Z,1004.17
2023-03-07T07:01:17.000Z,1004.20
2023-03-07T07:02:15.000Z,1004.10
2023-03-07T07:03:18.000Z,1004.15
2023-03-07T07:04:15.000Z,1004.18
2023-03-07T07:05:16.000Z,1004.17
2023-03-07T07:06:15.000Z,1004.15
2023-03-07T07:07:16.000Z,1004.16
2023-03-07T07:08:16.000Z,1004.06
2023-03-07T07:09:15.000Z,1004.11
2023-03-07T07:10:16.000Z,1004.10
2023-03-07T07:11:15.000Z,1004.04
2023-03-07T07:12:16.000Z,1004.14
2023-03-07T07:13:15.000Z,1004.11
2023-03-07T07:14:15.000Z,1004.09
2023-03-07T07:15:15.000Z,1004.10
2023-03-07T07:16:16.000Z,1004.13
2023-03-07T07:17:15.000Z,1004.14
2023-03-07T07:18:15.000Z,1004.07
2023-03-07T07:19:16.000Z,1004.10
2023-03-07T07:20:16.000Z,1004.09
2023-03-07T07:21:16.000Z,1004.07
2023-03-07T07:22:16.000Z,1004.06
2023-03-07T07:23:15.000Z,1004.12
2023-03-07T07:24:15.000Z,1004.07
2023-03-07T07:25:16.000Z,1004.06
2023-03-07T07:26:16.000Z,1004.08
2023-03-07T07:27:16.000Z,1004.11
2023-03-07T07:28:15.000Z,1004.06
2023-03-07T07:29:15.000Z,1004.13
2023-03-07T07:30:16.000Z,1004.14
2023-03-07T07:31:16.000Z,1004.13
2023-03-07T07:32:16.000Z,1004.11
2023-03-07T07:33:16.000Z,1004.14
2023-03-07T07:34:15.000Z,1004.10
2023-03-07T07:35:15.000Z,1004.12
2023-03-07T07:36:16.000Z,1004.15
2023-03-07T07:37:16.000Z,1004.15
2023-03-07T07:38:15.000Z,1004.12
2023-03-07T07:39:16.000Z,1004.09
2023-03-07T07:40:16.000Z,1004.13
2023-03-07T07:41:17.000Z,1004.10
2023-03-07T07:42:15.000Z,1004.13
2023-03-07T07:43:16.000Z,1004.13
2023-03-07T07:44:15.000Z,1004.11
2023-03-07T07:45:15.000Z,1004.05
2023-03-07T07:46:15.000Z,1004.11
2023-03-07T07:47:15.000Z,1004.12
2023-03-07T07:48:15.000Z,1004.10
2023-03-07T07:49:16.000Z,1004.11
2023-03-07T07:50:17.000Z,1004.10
2023-03-07T07:51:16.000Z,1004.10
2023-03-07T07:52:16.000Z,1004.15
2023-03-07T07:53:16.000Z,1004.12
2023-03-07T07:54:16.000Z,1004.15
2023-03-07T07:55:16.000Z,1004.08
2023-03-07T07:56:16.000Z,1004.13
2023-03-07T07:57:15.000Z,1004.10
2023-03-07T07:58:15.000Z,1004.13
2023-03-07T07:59:15.000Z,1004.16
2023-03-07T08:00:20.000Z,1004.09
2023-03-07T08:01:19.000Z,1004.05
2023-03-07T08:02:15.000Z,1004.05
2023-03-07T08:03:15.000Z,1004.10
2023-03-07T08:04:15.000Z,1004.04
2023-03-07T08:05:17.000Z,1004.08
2023-03-07T08:06:23.000Z,1004.07
2023-03-07T08:07:16.000Z,1004.05
2023-03-07T08:08:17.000Z,1004.07
2023-03-07T08:09:15.000Z,1004.05
2023-03-07T08:10:16.000Z,1004.07
2023-03-07T08:11:17.000Z,1004.01
2023-03-07T08:12:15.000Z,1004.09
2023-03-07T08:13:16.000Z,1004.00
2023-03-07T08:14:15.000Z,1004.01
2023-03-07T08:15:17.000Z,1003.98
2023-03-07T08:16:18.000Z,1003.94
2023-03-07T08:17:15.000Z,1003.94
2023-03-07T08:18:15.000Z,1003.92
2023-03-07T08:19:16.000Z,1003.94
2023-03-07T08:20:17.000Z,1003.90
2023-03-07T08:21:15.000Z,1003.89
2023-03-07T08:22:15.000Z,1003.88
2023-03-07T08:23:15.000Z,1003.88
2023-03-07T08:24:15.000Z,1003.87
2023-03-07T08:25:19.000Z,1003.87
2023-03-07T08:26:16.000Z,1003.87
2023-03-07T08:27:15.000Z,1003.91
2023-03-07T08:28:15.000Z,1003.90
2023-03-07T08:29:15.000Z,1003.94
2023-03-07T08:30:15.000Z,1003.93
2023-03-07T08:31:21.000Z,1003.91
2023-03-07T08:32:15.000Z,1003.89
2023-03-07T08:33:15.000Z,1003.91
2023-03-07T08:34:15.000Z,1003.93
2023-03-07T08:35:16.000Z,1003.77
2023-03-07T08:36:16.000Z,1003.84
2023-03-07T08:37:15.000Z,1003.93
2023-03-07T08:38:15.000Z,1003.93
2023-03-07T08:39:15.000Z,1003.85
2023-03-07T08:40:15.000Z,1003.83
2023-03-07T08:41:16.000Z,1003.80
2023-03-07T08:42:16.000Z,1003.88
2023-03-07T08:43:15.000Z,1003.86
2023-03-07T08:44:16.000Z,1003.88
2023-03-07T08:45:15.000Z,1003.85
2023-03-07T08:46:15.000Z,1003.84
2023-03-07T08:47:15.000Z,1003.80
2023-03-07T08:48:15.000Z,1003.72
2023-03-07T08:49:15.000Z,1003.74
2023-03-07T08:50:15.000Z,1003.74
2023-03-07T08:51:16.000Z,1003.72
2023-03-07T08:52:15.000Z,1003.68
2023-03-07T08:53:15.000Z,1003.72
2023-03-07T08:54:15.000Z,1003.72
2023-03-07T08:55:15.000Z,1003.69
2023-03-07T08:56:16.000Z,1003.69
2023-03-07T08:57:15.000Z,1003.76
2023-03-07T08:58:15.000Z,1003.67
2023-03-07T08:59:15.000Z,1003.63
2023-03-07T09:00:17.000Z,1003.60
2023-03-07T09:01:15.000Z,1003.69
2023-03-07T09:02:15.000Z,1003.63
2023-03-07T09:03:15.000Z,1003.58
2023-03-07T09:04:15.000Z,1003.63
2023-03-07T09:05:15.000Z,1003.53
2023-03-07T09:06:18.000Z,1003.61
2023-03-07T09:07:15.000Z,1003.62
2023-03-07T09:08:15.000Z,1003.61
2023-03-07T09:09:15.000Z,1003.62
2023-03-07T09:10:16.000Z,1003.60
2023-03-07T09:11:16.000Z,1003.63
2023-03-07T09:12:15.000Z,1003.61
2023-03-07T09:13:16.000Z,1003.57
2023-03-07T09:14:15.000Z,1003.59
2023-03-07T09:15:16.000Z,1003.64
2023-03-07T09:16:15.000Z,1003.57
2023-03-07T09:17:17.000Z,1003.57
2023-03-07T09:18:15.000Z,1003.62
2023-03-07T09:19:15.000Z,1003.53
2023-03-07T09:20:16.000Z,1003.57
2023-03-07T09:21:15.000Z,1003.52
2023-03-07T09:22:15.000Z,1003.55
2023-03-07T09:23:15.000Z,1003.57
2023-03-07T09:24:15.000Z,1003.54
2023-03-07T09:25:16.000Z,1003.57
2023-03-07T09:26:15.000Z,1003.61
2023-03-07T09:27:15.000Z,1003.55
2023-03-07T09:28:15.000Z,1003.60
2023-03-07T09:29:16.000Z,1003.62
2023-03-07T09:30:15.000Z,1003.58
2023-03-07T09:31:15.000Z,1003.63
2023-03-07T09:32:15.000Z,1003.61
2023-03-07T09:33:15.000Z,1003.62
2023-03-07T09:34:15.000Z,1003.61
2023-03-07T09:35:16.000Z,1003.67
2023-03-07T09:36:17.000Z,1003.60
2023-03-07T09:37:17.000Z,1003.56
2023-03-07T09:38:15.000Z,1003.57
2023-03-07T09:39:15.000Z,1003.60
2023-03-07T09:40:19.000Z,1003.59
2023-03-07T09:41:41.000Z,1003.62
2023-03-07T09:42:26.000Z,1003.41
2023-03-07T09:43:21.000Z,1003.50
2023-03-07T09:44:51.000Z,1003.49
2023-03-07T09:45:30.000Z,1003.47
2023-03-07T09:46:36.000Z,1003.44
2023-03-07T09:47:25.000Z,1003.50
2023-03-07T09:48:34.000Z,1003.51
2023-03-07T09:49:28.000Z,1003.49
2023-03-07T09:50:21.000Z,1003.46
2023-03-07T09:51:38.000Z,1003.52
2023-03-07T09:52:20.000Z,1003.44
2023-03-07T09:53:26.000Z,1003.37
2023-03-07T09:54:24.000Z,1003.38
2023-03-07T09:55:19.000Z,1003.39
2023-03-07T09:56:26.000Z,1003.39
2023-03-07T09:57:22.000Z,1003.46
2023-03-07T09:58:20.000Z,1003.43
2023-03-07T09:59:31.000Z,1003.39
2023-03-07T10:00:26.000Z,1003.38
2023-03-07T10:01:22.000Z,1003.35
2023-03-07T10:02:26.000Z,1003.42
2023-03-07T10:03:31.000Z,1003.38
2023-03-07T10:04:22.000Z,1003.34
2023-03-07T10:05:26.000Z,1003.37
2023-03-07T10:06:24.000Z,1003.31
2023-03-07T10:07:19.000Z,1003.35
2023-03-07T10:08:36.000Z,1003.36
2023-03-07T10:09:20.000Z,1003.37
2023-03-07T10:10:24.000Z,1003.38
2023-03-07T10:11:43.000Z,1003.33
2023-03-07T10:12:32.000Z,1003.40
2023-03-07T10:13:39.000Z,1003.32
2023-03-07T10:14:39.000Z,1003.33
2023-03-07T10:15:38.000Z,1003.34
2023-03-07T10:16:26.000Z,1003.33
2023-03-07T10:17:37.000Z,1003.29
2023-03-07T10:18:39.000Z,1003.28
2023-03-07T10:19:30.000Z,1003.29
2023-03-07T10:20:24.000Z,1003.34
2023-03-07T10:21:26.000Z,1003.36
2023-03-07T10:22:26.000Z,1003.24
2023-03-07T10:23:26.000Z,1003.21
2023-03-07T10:24:45.000Z,1003.24
2023-03-07T10:25:26.000Z,1003.14
2023-03-07T10:26:28.000Z,1003.13
2023-03-07T10:27:20.000Z,1003.17
2023-03-07T10:28:24.000Z,1003.18
2023-03-07T10:29:20.000Z,1003.13
2023-03-07T10:30:18.000Z,1003.09
2023-03-07T10:31:27.000Z,1003.13
2023-03-07T10:32:20.000Z,1003.15
2023-03-07T10:33:18.000Z,1003.14
2023-03-07T10:34:23.000Z,1003.18
2023-03-07T10:35:22.000Z,1003.09
2023-03-07T10:36:38.000Z,1003.06
2023-03-07T10:37:18.000Z,1003.12
2023-03-07T10:38:26.000Z,1003.09
2023-03-07T10:39:26.000Z,1003.11
2023-03-07T10:40:24.000Z,1003.10
2023-03-07T10:41:19.000Z,1002.99
2023-03-07T10:42:19.000Z,1002.98
2023-03-07T10:43:22.000Z,1002.93
2023-03-07T10:44:19.000Z,1002.92
2023-03-07T10:45:16.000Z,1003.05
2023-03-07T10:46:22.000Z,1002.91
2023-03-07T10:47:19.000Z,1003.01
2023-03-07T10:48:18.000Z,1002.94
2023-03-07T10:49:20.000Z,1003.07
2023-03-07T10:50:33.000Z,1002.87
2023-03-07T10:51:39.000Z,1002.83
2023-03-07T10:52:26.000Z,1002.84
2023-03-07T10:53:23.000Z,1002.87
2023-03-07T10:54:19.000Z,1002.81
2023-03-07T10:55:26.000Z,1002.91
2023-03-07T10:56:17.000Z,1002.82
2023-03-07T10:57:17.000Z,1002.87
2023-03-07T10:58:23.000Z,1002.88
2023-03-07T10:59:23.000Z,1002.87
2023-03-07T11:00:17.000Z,1002.82
2023-03-07T11:01:18.000Z,1002.81
2023-03-07T11:02:39.000Z,1002.79
2023-03-07T11:03:26.000Z,1002.83
2023-03-07T11:04:20.000Z,1002.78
2023-03-07T11:05:28.000Z,1002.77
2023-03-07T11:06:26.000Z,1002.92
2023-03-07T11:07:25.000Z,1002.83
2023-03-07T11:08:38.000Z,1002.80
2023-03-07T11:09:25.000Z,1002.89
2023-03-07T11:10:26.000Z,1002.82
2023-03-07T11:11:29.000Z,1002.85
2023-03-07T11:12:19.000Z,1002.85
2023-03-07T11:13:18.000Z,1002.85
2023-03-07T11:14:16.000Z,1002.78
2023-03-07T11:15:21.000Z,1002.77
2023-03-07T11:16:20.000Z,1002.84
2023-03-07T11:17:19.000Z,1002.71
2023-03-07T11:18:26.000Z,1002.78
2023-03-07T11:19:24.000Z,1002.77
2023-03-07T11:20:23.000Z,1002.73
2023-03-07T11:21:25.000Z,1002.70
2023-03-07T11:22:26.000Z,1002.69
2023-03-07T11:23:25.000Z,1002.66
2023-03-07T11:24:24.000Z,1002.78
2023-03-07T11:25:21.000Z,1002.66
2023-03-07T11:26:20.000Z,1002.66
2023-03-07T11:27:26.000Z,1002.64
2023-03-07T11:28:25.000Z,1002.63
2023-03-07T11:29:16.000Z,1002.60
2023-03-07T11:30:42.000Z,1002.60
2023-03-07T11:31:27.000Z,1002.58
2023-03-07T11:32:20.000Z,1002.56
2023-03-07T11:33:23.000Z,1002.55
2023-03-07T11:34:34.000Z,1002.58
2023-03-07T11:35:19.000Z,1002.57
2023-03-07T11:36:24.000Z,1002.66
2023-03-07T11:37:25.000Z,1002.58
2023-03-07T11:38:37.000Z,1002.58
2023-03-07T11:39:39.000Z,1002.50
2023-03-07T11:40:29.000Z,1002.45
2023-03-07T11:41:25.000Z,1002.39
2023-03-07T11:42:22.000Z,1002.42
2023-03-07T11:43:21.000Z,1002.39
2023-03-07T11:44:32.000Z,1002.38
2023-03-07T11:45:31.000Z,1002.39
2023-03-07T11:46:29.000Z,1002.34
2023-03-07T11:47:25.000Z,1002.33
2023-03-07T11:48:28.000Z,1002.38
2023-03-07T11:49:40.000Z,1002.39
2023-03-07T11:50:22.000Z,1002.40
2023-03-07T11:51:25.000Z,1002.34
2023-03-07T11:52:25.000Z,1002.35
2023-03-07T11:53:26.000Z,1002.37
2023-03-07T11:54:29.000Z,1002.37
2023-03-07T11:55:25.000Z,1002.38
2023-03-07T11:56:36.000Z,1002.37
2023-03-07T11:57:49.000Z,1002.38
2023-03-07T11:58:38.000Z,1002.37
2023-03-07T11:59:30.000Z,1002.34
2023-03-07T12:00:24.000Z,1002.40
2023-03-07T12:01:28.000Z,1002.38
2023-03-07T12:02:35.000Z,1002.38
2023-03-07T12:03:25.000Z,1002.43
2023-03-07T12:04:25.000Z,1002.38
2023-03-07T12:05:36.000Z,1002.32